• Join FlightAware (Why Join?)
  • Login
  • US Flag 
03:31AM EDT


 

Airport Tracker/Info


-or-


 

Live Flight TrackerFlight Track Log ✈ SWA1718 ✈ 24-Apr-2013 ✈ KAMA - KDEN

Flight Track Log - Related Links

Times and Time Zones

All times are in EDT time to prevent confusion due to time zone crossing. See the SWA1718 flight status page for this flight to view local times or setup timezone preferences in your user account.

Time Position Orientation Groundspeed Altitude Reporting Facility
EDT Latitude Longitude Course Direction KTS MPH feet Rate Location/Type
05:02PM 35.3467 -101.8289 340° North 268 308 11,100  Level Albuquerque Center
05:04PM 35.4308 -101.8653 341° North 306 352 13,300 2,340 Climbing Albuquerque Center
05:05PM 35.5231 -101.9047 341° North 342 394 16,000 2,940 Climbing Albuquerque Center
05:06PM 35.7678 -102.0356 334° Northwest  Level Estimated
05:06PM 35.6347 -101.9514 341° North 352 405 19,400  Level Albuquerque Center
05:07PM 35.8603 -102.0917 334° Northwest  Level Estimated
05:07PM 35.7297 -101.9919 341° North 357 411 21,300  Level Albuquerque Center
05:08PM 35.8300 -102.0358 340° North 375 432 23,600 1,980 Climbing Albuquerque Center
05:09PM 35.9297 -102.0783 341° North 379 436 25,500 1,740 Climbing Albuquerque Center
05:10PM 36.0322 -102.1233 340° North 386 444 27,200 1,500 Climbing Albuquerque Center
05:11PM 36.1372 -102.1675 341° North 395 455 28,700 1,800 Climbing Albuquerque Center
05:12PM 36.2628 -102.2206 341° North 398 458 31,000 1,980 Climbing Albuquerque Center
05:13PM 36.3642 -102.2661 340° North 389 448 32,900 1,500 Climbing Albuquerque Center
05:14PM 36.4628 -102.3097 340° North 380 437 34,200 1,080 Climbing Albuquerque Center
05:15PM 36.5594 -102.3508 341° North 370 426 35,200 900 Climbing Albuquerque Center
05:16PM 36.6583 -102.3956 340° North 375 432 36,100 420 Climbing Albuquerque Center
05:17PM 36.7583 -102.4397 341° North 381 438 36,100  Level Albuquerque Center
05:18PM 36.8803 -102.4936 341° North 385 443 36,100  Level Albuquerque Center
05:19PM 36.9808 -102.5383 340° North 380 437 36,100  Level Albuquerque Center
05:20PM 37.0747 -102.5803 340° North 375 432 36,100  Level Albuquerque Center
05:21PM 37.1872 -102.6303 341° North 380 437 36,100  Level Albuquerque Center
05:22PM 37.2850 -102.6744 340° North 386 444 36,100  Level Albuquerque Center
05:23PM 37.3983 -102.7258 340° North 387 445 36,100  Level Albuquerque Center
05:24PM 37.4969 -102.7689 341° North 386 444 36,100  Level Denver Center
05:25PM 37.6125 -102.8092 345° North 384 442 36,100  Level Denver Center
05:26PM 37.7106 -102.8394 346° North 379 436 36,100  Level Denver Center
05:27PM 37.8253 -102.8758 346° North 379 436 36,100  Level Denver Center
05:28PM 37.9236 -102.9067 346° North 379 436 36,100  Level Denver Center
05:29PM 38.0372 -102.9417 346° North 376 433 36,100  Level Denver Center
05:30PM 38.1344 -102.9722 346° North 374 430 36,100  Level Denver Center
05:31PM 38.2467 -103.0083 346° North 373 429 36,100  Level Denver Center
05:33PM 38.3425 -103.0386 346° North 372 428 36,100  Level Denver Center
05:34PM 38.4528 -103.0756 345° North 368 423 36,100  Level Denver Center
05:35PM 38.5481 -103.1094 344° North 371 427 36,100 -60 Level Denver Center
05:36PM 38.6133 -103.2053 311° West 328 377 36,000 -600 Descending Denver Center
05:37PM 38.6742 -103.2892 313° West 320 368 34,900 -960 Descending Denver Center
05:38PM 38.7356 -103.3739 313° West 321 369 34,100 -420 Descending Denver Center
05:39PM 38.7958 -103.4606 312° West 323 372 34,100 -120 Level Denver Center
05:40PM 38.8583 -103.5486 312° West 328 377 33,900 -1,800 Descending Denver Center
05:41PM 38.9219 -103.6397 312° West 337 388 30,400 -2,820 Descending Denver Center
05:42PM 38.9844 -103.7272 313° West 332 382 28,100 -2,400 Descending Denver Center
05:43PM 39.0522 -103.8244 312° West 315 362 25,500 -2,460 Descending Denver Center
05:44PM 39.1147 -103.9158 311° West 330 380 23,100 -2,400 Descending Denver Center
05:45PM 39.1811 -104.0094 312° West 343 395 20,600 -2,280 Descending Denver Center
05:46PM 39.2478 -104.1056 312° West 343 395 18,400 -2,100 Descending Denver Center
05:47PM 39.2956 -104.1981 304° West 311 358 16,300 -2,160 Descending Denver Center
05:48PM 39.3425 -104.2892 304° West 307 353 14,000 -2,220 Descending Denver Center
05:49PM 39.4022 -104.3808 310° West 307 353 11,800 -1,560 Descending Denver Center
05:50PM 39.4567 -104.4636 310° West 302 348 10,800 -900 Descending Denver Center
05:51PM 39.5203 -104.5478 314° West 306 352 10,000 -540 Descending Denver Center
05:52PM 39.5889 -104.5958 332° Northwest 282 325 9,700 -720 Descending Denver Center
05:53PM 39.6575 -104.6447 331° Northwest 264 304 8,600 -1,020 Descending Denver Center
05:54PM 39.7161 -104.6658 345° North 224 258 7,700 -1,020 Descending Denver Center
05:55PM 39.7739 -104.6608 North 189 217 6,500 -1,020 Descending Denver Center
05:56PM 39.8161 -104.6606 360° North 160 184 5,700 -780 Descending Denver Center
05:58PM 39.8500 -104.6667 North  Level FlightAware Approximate
06:05PM 39.8617 -104.6732 North  Level Estimated
06:06PM 39.8617 -104.6732 North  Level Estimated
06:07PM 39.8617 -104.6732 North  Level Estimated
06:08PM 39.8617 -104.6732 North  Level Estimated